Time;durP1;ratioP1;P1;durP2;ratioP2;P2;SDS_P1;SDS_P2;PMS_P1;PMS_P2;Temp;Humidity;BMP_temperature;BMP_pressure;BME280_temperature;BME280_humidity;BME280_pressure;Samples;Min_cycle;Max_cycle;Signal;HPM_P1;HPM_P2
2022/11/21 00:00:00;;;;;;;7.03;1.63;;;;;;;18.86;71.68;97965.53;5155792;27;20189;-91
2022/11/21 00:02:25;;;;;;;12.73;1.67;;;;;;;18.81;71.62;97945.78;5155024;27;20178;-91
2022/11/21 00:04:51;;;;;;;11.07;1.60;;;;;;;18.85;71.58;97958.56;5155832;27;20250;-93
2022/11/21 00:07:16;;;;;;;11.17;1.77;;;;;;;18.71;72.22;97959.16;5156262;27;20174;-91
2022/11/21 00:09:42;;;;;;;5.37;2.33;;;;;;;18.77;72.16;97950.56;5156210;27;20182;-92
2022/11/21 00:12:07;;;;;;;12.40;2.17;;;;;;;18.74;72.47;97929.63;5155635;27;20174;-93
2022/11/21 00:14:33;;;;;;;8.07;1.80;;;;;;;18.78;72.69;97933.66;5156155;27;20213;-92
2022/11/21 00:16:58;;;;;;;10.80;1.63;;;;;;;18.99;71.65;97906.66;5156309;27;20277;-94
2022/11/21 00:19:27;;;;;;;17.87;1.83;;;;;;;18.96;72.09;97891.88;5155517;27;20258;-94
2022/11/21 00:21:52;;;;;;;14.53;2.33;;;;;;;18.96;72.33;97875.94;5155667;27;20177;-92
2022/11/21 00:24:18;;;;;;;10.73;1.93;;;;;;;18.96;72.65;97894.53;5154688;27;20253;-89
2022/11/21 00:26:46;;;;;;;8.47;1.43;;;;;;;18.92;73.02;97889.69;5155811;27;20174;-92
2022/11/21 00:29:11;;;;;;;10.27;2.37;;;;;;;18.87;73.19;97895.50;5155473;27;20174;-92
2022/11/21 00:31:36;;;;;;;10.40;1.87;;;;;;;18.83;73.25;97915.41;5155947;27;20170;-91
2022/11/21 00:34:02;;;;;;;8.50;1.53;;;;;;;18.95;72.85;97907.97;5155855;27;20202;-92
2022/11/21 00:36:27;;;;;;;18.47;2.87;;;;;;;18.98;72.72;97889.03;5154473;27;20205;-93
2022/11/21 00:38:53;;;;;;;10.03;1.93;;;;;;;19.08;72.18;97867.66;5155318;27;20543;-93
2022/11/21 00:41:18;;;;;;;8.13;1.43;;;;;;;19.26;71.49;97847.09;5155540;27;20268;-91
2022/11/21 00:43:44;;;;;;;12.77;2.00;;;;;;;19.44;70.17;97824.66;5155353;27;20220;-93
2022/11/21 00:46:09;;;;;;;16.27;2.10;;;;;;;19.36;70.02;97813.22;5154468;27;20174;-92
2022/11/21 00:48:35;;;;;;;11.40;2.10;;;;;;;19.49;69.67;97809.06;5155182;27;20178;-93
2022/11/21 00:51:00;;;;;;;7.93;3.00;;;;;;;19.51;69.17;97808.91;5154429;27;20178;-92
2022/11/21 00:53:26;;;;;;;9.93;2.30;;;;;;;19.55;69.31;97818.19;5156041;27;20630;-93
2022/11/21 00:55:52;;;;;;;8.77;2.10;;;;;;;19.79;68.31;97812.81;5159988;27;20178;-92
2022/11/21 00:58:17;;;;;;;9.60;1.87;;;;;;;19.77;68.18;97804.19;5159245;27;20691;-91
2022/11/21 01:00:43;;;;;;;6.20;1.67;;;;;;;19.71;68.27;97801.38;5159544;27;20238;-92
2022/11/21 01:03:08;;;;;;;19.17;2.70;;;;;;;19.90;67.82;97807.13;5159928;27;20188;-92
2022/11/21 01:05:34;;;;;;;16.53;2.47;;;;;;;20.02;67.08;97821.72;5159316;27;20674;-92
2022/11/21 01:07:59;;;;;;;16.97;1.93;;;;;;;20.02;66.95;97811.06;5159283;27;20166;-92
2022/11/21 01:10:25;;;;;;;11.83;1.47;;;;;;;20.30;66.12;97800.03;5159355;27;20201;-91
2022/11/21 01:12:50;;;;;;;7.70;1.73;;;;;;;20.32;66.00;97808.66;5158217;27;20256;-91
2022/11/21 01:15:15;;;;;;;7.40;2.13;;;;;;;20.35;65.87;97827.78;5158191;27;20208;-92
2022/11/21 01:17:41;;;;;;;8.60;2.77;;;;;;;20.26;66.29;97828.00;5158250;27;20535;-92
2022/11/21 01:20:07;;;;;;;11.57;2.97;;;;;;;20.26;65.74;97814.69;5159113;27;20169;-93
2022/11/21 01:22:33;;;;;;;15.03;2.43;;;;;;;19.77;67.59;97806.00;5158521;27;20241;-91
2022/11/21 01:24:58;;;;;;;13.87;2.40;;;;;;;19.57;68.76;97805.56;5158497;27;20691;-91
2022/11/21 01:27:24;;;;;;;12.57;2.17;;;;;;;19.80;67.71;97811.81;5158839;27;20197;-92
2022/11/21 01:29:51;;;;;;;14.03;2.30;;;;;;;19.60;68.45;97816.69;5158012;27;20615;-92
2022/11/21 01:32:17;;;;;;;17.10;2.53;;;;;;;19.51;68.79;97817.69;5157848;27;20196;-91
2022/11/21 01:34:42;;;;;;;14.23;2.90;;;;;;;19.42;69.55;97821.34;5157687;27;20722;-91
2022/11/21 01:37:08;;;;;;;16.43;3.00;;;;;;;19.20;70.72;97813.22;5157757;27;20180;-90
2022/11/21 01:39:33;;;;;;;12.83;2.30;;;;;;;19.26;70.69;97812.56;5157886;27;20174;-90
2022/11/21 01:41:59;;;;;;;19.27;3.50;;;;;;;19.19;70.66;97798.25;5157645;27;20174;-89
2022/11/21 01:44:44;;;;;;;8.80;1.57;;;;;;;19.03;71.44;97818.50;5157678;27;20603;-92
2022/11/21 01:47:19;;;;;;;20.00;4.03;;;;;;;19.20;71.07;97786.66;5157662;27;20177;-91
2022/11/21 01:49:45;;;;;;;12.37;2.60;;;;;;;19.25;71.23;97794.94;5157507;27;20516;-91
2022/11/21 01:52:17;;;;;;;13.97;2.13;;;;;;;19.37;70.73;97798.91;5158416;27;20170;-90
2022/11/21 01:55:04;;;;;;;16.13;2.90;;;;;;;19.39;70.82;97791.66;5158751;27;20229;-91
2022/11/21 01:57:47;;;;;;;19.63;3.73;;;;;;;19.38;71.11;97789.97;5157539;27;20257;-90
2022/11/21 02:00:23;;;;;;;19.23;3.37;;;;;;;19.52;70.74;97760.88;5158472;27;20527;-92
2022/11/21 02:02:57;;;;;;;17.17;3.00;;;;;;;19.61;70.35;97759.03;5158731;27;20158;-91
2022/11/21 02:05:27;;;;;;;16.43;2.17;;;;;;;19.34;71.65;97731.00;5157090;27;20173;-92
2022/11/21 02:07:56;;;;;;;20.97;3.63;;;;;;;19.36;72.07;97728.19;5157864;27;20181;-91
2022/11/21 02:10:22;;;;;;;17.53;3.17;;;;;;;19.17;73.21;97736.50;5157168;27;20175;-92
2022/11/21 02:12:50;;;;;;;13.30;2.70;;;;;;;19.24;73.22;97750.75;5158025;27;20170;-90
2022/11/21 02:15:17;;;;;;;21.03;3.27;;;;;;;19.26;73.29;97743.47;5157681;27;20198;-91
2022/11/21 02:17:42;;;;;;;17.87;2.73;;;;;;;19.21;73.28;97740.50;5156778;27;20171;-91
2022/11/21 02:20:11;;;;;;;19.27;2.53;;;;;;;19.26;73.80;97752.25;5156714;27;20186;-90
2022/11/21 02:22:54;;;;;;;16.33;2.73;;;;;;;19.39;73.59;97762.41;5156616;27;20680;-90
2022/11/21 02:25:49;;;;;;;21.73;3.60;;;;;;;19.35;73.71;97769.03;5157629;27;20173;-89
2022/11/21 02:28:19;;;;;;;7.67;3.07;;;;;;;19.29;73.96;97753.75;5153635;27;20201;-90
2022/11/21 02:30:45;;;;;;;12.07;2.27;;;;;;;19.26;74.18;97773.50;5157539;27;20166;-90
2022/11/21 02:33:11;;;;;;;19.70;4.10;;;;;;;19.20;74.33;97784.00;5157458;27;20174;-94
2022/11/21 02:35:37;;;;;;;11.60;2.90;;;;;;;19.29;74.52;97775.84;5156605;27;20213;-92
2022/11/21 02:38:10;;;;;;;16.87;2.87;;;;;;;19.51;73.16;97779.66;5156793;27;20167;-92
2022/11/21 02:40:41;;;;;;;15.27;4.00;;;;;;;19.42;73.38;97773.53;5158114;27;20158;-91
2022/11/21 02:43:13;;;;;;;17.23;2.40;;;;;;;19.30;74.19;97777.50;5156629;27;20525;-92
2022/11/21 02:45:44;;;;;;;16.13;3.27;;;;;;;19.36;74.28;97776.84;5157274;27;20162;-90
2022/11/21 02:48:10;;;;;;;13.60;2.87;;;;;;;19.26;74.67;97783.34;5157535;27;20201;-89
2022/11/21 02:50:38;;;;;;;25.47;4.43;;;;;;;19.29;74.73;97781.16;5157196;27;20170;-89
2022/11/21 02:53:05;;;;;;;11.43;2.80;;;;;;;19.16;75.78;97762.22;5156491;27;20706;-91
2022/11/21 02:55:31;;;;;;;12.83;2.30;;;;;;;19.24;75.76;97756.91;5157457;27;20657;-91
2022/11/21 02:57:56;;;;;;;16.43;3.27;;;;;;;19.42;74.16;97759.41;5157622;27;20166;-91
2022/11/21 03:00:23;;;;;;;10.07;3.00;;;;;;;19.31;73.35;97757.88;5157098;27;20174;-91
2022/11/21 03:02:49;;;;;;;14.80;1.63;;;;;;;19.09;73.04;97749.78;5157393;27;20166;-92
2022/11/21 03:05:16;;;;;;;15.50;2.20;;;;;;;19.03;72.68;97759.25;5156839;27;20171;-92
2022/11/21 03:07:43;;;;;;;7.00;2.07;;;;;;;19.05;72.38;97772.38;5156814;27;20649;-90
2022/11/21 03:10:09;;;;;;;15.37;2.90;;;;;;;19.05;72.07;97767.06;5156838;27;20166;-91
2022/11/21 03:12:35;;;;;;;17.80;4.17;;;;;;;19.17;72.22;97766.56;5156627;27;20234;-91
2022/11/21 03:15:01;;;;;;;15.53;2.27;;;;;;;19.20;72.39;97776.84;5155681;27;20652;-91
2022/11/21 03:17:27;;;;;;;19.77;2.63;;;;;;;19.22;71.99;97774.03;5156261;27;20178;-91
2022/11/21 03:19:52;;;;;;;16.60;3.00;;;;;;;19.32;72.07;97769.34;5157188;27;20171;-93
2022/11/21 03:22:18;;;;;;;9.10;1.83;;;;;;;19.43;71.79;97766.38;5156704;27;20638;-90
2022/11/21 03:24:43;;;;;;;9.97;2.53;;;;;;;19.33;72.56;97765.72;5156829;27;20245;-91
2022/11/21 03:27:09;;;;;;;16.17;2.20;;;;;;;19.44;72.32;97773.38;5156496;27;20624;-92
2022/11/21 03:29:34;;;;;;;17.73;3.83;;;;;;;19.40;72.66;97769.38;5156610;27;20170;-91
2022/11/21 03:31:59;;;;;;;18.03;3.27;;;;;;;19.39;72.88;97762.41;5155395;27;20653;-91
2022/11/21 03:34:25;;;;;;;9.70;2.47;;;;;;;19.50;72.45;97768.19;5155251;27;20254;-90
2022/11/21 03:36:51;;;;;;;9.87;2.00;;;;;;;19.30;73.45;97768.69;5156436;27;20170;-91
2022/11/21 03:39:16;;;;;;;10.43;2.30;;;;;;;19.30;73.27;97753.59;5155334;27;20239;-90
2022/11/21 03:41:42;;;;;;;18.23;2.47;;;;;;;19.33;73.53;97755.91;5156163;27;20534;-91
2022/11/21 03:44:09;;;;;;;14.90;2.17;;;;;;;19.40;73.18;97748.13;5156670;27;20166;-91
2022/11/21 03:46:40;;;;;;;18.73;2.83;;;;;;;19.53;72.82;97740.44;5156017;27;20230;-91
2022/11/21 03:49:07;;;;;;;16.17;2.93;;;;;;;19.37;73.19;97743.09;5156353;27;20206;-91
2022/11/21 03:51:33;;;;;;;9.70;2.23;;;;;;;19.34;72.85;97731.00;5156403;27;20181;-91
2022/11/21 03:53:59;;;;;;;16.70;2.13;;;;;;;19.22;72.82;97731.50;5155882;27;20190;-90
2022/11/21 03:56:25;;;;;;;15.07;1.70;;;;;;;19.01;72.96;97721.44;5156164;27;20226;-92
2022/11/21 03:58:51;;;;;;;13.43;2.77;;;;;;;19.04;72.83;97718.44;5155270;27;20203;-92
2022/11/21 04:01:17;;;;;;;8.87;2.13;;;;;;;19.12;72.51;97709.63;5155877;27;20649;-90
2022/11/21 04:03:44;;;;;;;11.53;2.30;;;;;;;18.94;72.42;97697.38;5156087;27;20162;-90
2022/11/21 04:06:12;;;;;;;14.33;2.37;;;;;;;18.81;72.76;97678.47;5155317;27;20201;-90
2022/11/21 04:08:38;;;;;;;8.50;2.27;;;;;;;18.89;72.26;97681.09;5155644;27;20166;-91
2022/11/21 04:11:04;;;;;;;9.97;2.13;;;;;;;18.92;72.75;97688.72;5154712;27;20646;-91
2022/11/21 04:13:30;;;;;;;10.60;2.73;;;;;;;18.95;72.25;97677.78;5154639;27;20260;-91
2022/11/21 04:15:56;;;;;;;16.73;2.30;;;;;;;18.91;72.21;97689.75;5154250;27;20565;-90
2022/11/21 04:18:21;;;;;;;13.53;1.90;;;;;;;18.73;72.39;97686.44;5155691;27;20653;-90
2022/11/21 04:20:47;;;;;;;11.77;2.50;;;;;;;18.74;71.68;97690.75;5155798;27;20180;-90
2022/11/21 04:23:12;;;;;;;9.77;2.07;;;;;;;18.64;71.43;97678.63;5154505;27;20173;-91
2022/11/21 04:25:39;;;;;;;8.23;1.80;;;;;;;18.49;71.20;97688.25;5156019;27;20250;-91
2022/11/21 04:28:05;;;;;;;10.07;2.13;;;;;;;18.47;71.22;97687.56;5155057;27;20174;-91
2022/11/21 04:30:32;;;;;;;9.90;2.40;;;;;;;18.49;71.02;97688.25;5154362;27;20185;-92
2022/11/21 04:33:00;;;;;;;6.73;1.83;;;;;;;18.47;70.63;97688.44;5155278;27;20522;-90
2022/11/21 04:35:26;;;;;;;8.37;1.70;;;;;;;18.48;70.63;97686.59;5154456;27;20198;-91
2022/11/21 04:37:52;;;;;;;10.23;1.47;;;;;;;18.42;70.60;97685.41;5154409;27;20177;-93
2022/11/21 04:40:17;;;;;;;6.40;1.50;;;;;;;18.28;71.13;97686.06;5154458;27;20218;-92
2022/11/21 04:42:45;;;;;;;15.77;3.37;;;;;;;18.16;71.44;97682.06;5154977;27;20615;-91
2022/11/21 04:45:12;;;;;;;16.00;2.97;;;;;;;18.27;70.70;97674.59;5154219;27;20176;-91
2022/11/21 04:47:39;;;;;;;19.30;3.07;;;;;;;18.27;70.11;97666.66;5154358;27;20167;-90
2022/11/21 04:50:06;;;;;;;14.53;1.80;;;;;;;18.22;69.86;97663.66;5155018;27;20242;-91
2022/11/21 04:52:32;;;;;;;16.17;1.70;;;;;;;18.16;69.85;97668.81;5154098;27;20182;-91
2022/11/21 04:54:58;;;;;;;15.30;2.37;;;;;;;18.05;70.01;97662.00;5155411;27;20198;-93
2022/11/21 04:57:27;;;;;;;13.77;2.13;;;;;;;17.96;69.89;97672.72;5154248;27;20203;-92
2022/11/21 04:59:53;;;;;;;10.27;1.97;;;;;;;17.99;69.68;97675.88;5154028;27;20196;-90
2022/11/21 05:02:19;;;;;;;12.13;2.07;;;;;;;18.05;69.91;97677.06;5155433;27;20162;-91
2022/11/21 05:04:45;;;;;;;14.97;2.27;;;;;;;18.00;70.06;97682.03;5153910;27;20173;-92
2022/11/21 05:07:11;;;;;;;16.43;2.83;;;;;;;18.02;70.03;97680.03;5154727;27;20607;-88
2022/11/21 05:09:36;;;;;;;11.63;2.00;;;;;;;18.16;69.34;97671.47;5154885;27;20537;-91
2022/11/21 05:14:46;;;;;;;13.10;2.40;;;;;;;17.97;70.38;97658.50;5155192;27;20194;-90
2022/11/21 05:17:12;;;;;;;14.73;2.97;;;;;;;18.06;69.81;97655.69;5154052;27;20170;-92
2022/11/21 05:19:37;;;;;;;14.60;2.27;;;;;;;18.05;69.73;97654.03;5154057;27;20239;-92
2022/11/21 05:22:09;;;;;;;10.57;2.97;;;;;;;18.07;69.62;97659.16;5153960;27;20178;-93
2022/11/21 05:24:39;;;;;;;10.37;1.90;;;;;;;18.08;69.45;97660.84;5154826;27;20608;-90
2022/11/21 05:27:05;;;;;;;12.90;2.87;;;;;;;18.18;68.55;97661.50;5153955;27;20653;-91
2022/11/21 05:29:30;;;;;;;15.30;2.43;;;;;;;18.04;68.08;97667.44;5154852;27;20170;-91
2022/11/21 05:31:56;;;;;;;12.07;1.73;;;;;;;18.02;68.04;97664.13;5154854;27;20204;-92
2022/11/21 05:34:22;;;;;;;7.27;2.03;;;;;;;18.18;66.76;97667.66;5153754;27;20198;-90
2022/11/21 05:36:47;;;;;;;12.00;2.20;;;;;;;18.22;65.53;97668.97;5153815;27;20622;-91
2022/11/21 05:39:14;;;;;;;16.10;1.70;;;;;;;18.07;64.78;97675.91;5155112;27;20611;-92
2022/11/21 05:41:40;;;;;;;13.20;1.50;;;;;;;18.15;63.73;97673.28;5157768;27;20180;-93
2022/11/21 05:44:05;;;;;;;14.93;2.30;;;;;;;18.24;62.39;97674.94;5157751;27;20257;-92
2022/11/21 05:46:31;;;;;;;5.97;1.50;;;;;;;18.35;61.34;97682.56;5159022;27;20196;-92
2022/11/21 05:48:56;;;;;;;17.13;2.57;;;;;;;18.50;60.64;97688.06;5157523;27;20178;-92
2022/11/21 05:51:22;;;;;;;14.83;3.93;;;;;;;18.59;60.59;97697.72;5157514;27;20174;-92
2022/11/21 05:53:47;;;;;;;14.30;3.77;;;;;;;18.60;60.43;97685.28;5157419;27;20614;-91
2022/11/21 05:56:15;;;;;;;23.83;4.17;;;;;;;18.73;60.23;97678.47;5158314;27;20185;-92
2022/11/21 05:58:41;;;;;;;6.27;1.43;;;;;;;18.75;59.90;97681.78;5157500;27;20213;-93
2022/11/21 06:01:09;;;;;;;17.77;2.13;;;;;;;18.57;59.18;97683.78;5157355;27;20197;-91
2022/11/21 06:03:39;;;;;;;3.23;0.90;;;;;;;18.48;57.82;97698.03;5158730;27;20167;-94
2022/11/21 06:06:10;;;;;;;5.97;1.27;;;;;;;18.57;57.29;97702.38;5157059;27;20261;-92
2022/11/21 06:08:40;;;;;;;11.57;1.23;;;;;;;18.88;56.45;97702.50;5157139;27;20170;-92
2022/11/21 06:11:08;;;;;;;3.17;0.97;;;;;;;18.88;56.17;97702.50;5157529;27;20198;-90
2022/11/21 06:13:35;;;;;;;7.63;1.30;;;;;;;18.89;56.19;97709.50;5156857;27;20619;-93
2022/11/21 06:16:03;;;;;;;17.60;1.73;;;;;;;18.98;56.24;97693.38;5156774;27;20311;-92
2022/11/21 06:18:32;;;;;;;6.53;1.63;;;;;;;19.28;56.36;97705.13;5156775;27;20177;-90
2022/11/21 06:21:15;;;;;;;6.93;1.03;;;;;;;19.41;56.11;97705.44;5156876;27;20167;-89
2022/11/21 06:23:42;;;;;;;6.57;1.50;;;;;;;19.22;56.79;97720.91;5158424;27;20229;-93
2022/11/21 06:26:15;;;;;;;10.40;1.67;;;;;;;19.36;56.62;97718.38;5158078;27;20169;-91
2022/11/21 06:28:41;;;;;;;10.70;1.50;;;;;;;19.77;55.15;97721.75;5156692;27;20193;-91
2022/11/21 06:31:22;;;;;;;4.20;1.33;;;;;;;20.27;53.39;97731.19;5157492;27;20170;-91
2022/11/21 06:33:51;;;;;;;9.30;1.50;;;;;;;20.41;52.78;97746.41;5157172;27;20170;-91
2022/11/21 06:36:17;;;;;;;5.90;1.27;;;;;;;20.37;52.60;97745.94;5156331;27;20611;-90
2022/11/21 06:38:44;;;;;;;4.57;1.53;;;;;;;20.37;52.65;97758.41;5156345;27;20174;-89
2022/11/21 06:41:12;;;;;;;9.60;1.70;;;;;;;20.34;52.76;97753.41;5157710;27;20277;-89
2022/11/21 06:43:38;;;;;;;12.77;1.70;;;;;;;20.43;52.38;97750.56;5157496;27;20174;-89
2022/11/21 06:46:03;;;;;;;7.87;1.37;;;;;;;20.67;51.66;97757.56;5157184;27;20177;-89
2022/11/21 06:48:33;;;;;;;7.10;1.10;;;;;;;20.83;50.75;97763.56;5156085;27;20178;-93
2022/11/21 06:51:16;;;;;;;6.07;1.03;;;;;;;20.70;50.59;97767.84;5155214;27;20182;-93
2022/11/21 06:53:42;;;;;;;7.43;2.03;;;;;;;20.88;50.09;97767.53;5157407;27;20185;-93
2022/11/21 06:56:08;;;;;;;7.10;0.90;;;;;;;21.21;49.49;97753.78;5156169;27;20622;-92
2022/11/21 06:58:33;;;;;;;7.33;2.40;;;;;;;21.35;48.85;97758.34;5155958;27;20312;-92
2022/11/21 07:01:07;;;;;;;7.47;1.60;;;;;;;21.32;48.71;97763.19;5156002;27;20178;-90
2022/11/21 07:03:35;;;;;;;16.37;1.67;;;;;;;21.33;47.90;97757.66;5157318;27;20162;-94
2022/11/21 07:06:02;;;;;;;9.63;1.37;;;;;;;21.20;47.54;97754.00;5157147;27;20171;-91
2022/11/21 07:08:29;;;;;;;5.83;1.00;;;;;;;21.20;47.69;97769.97;5156259;27;20599;-93
2022/11/21 07:10:55;;;;;;;8.90;1.20;;;;;;;20.96;47.31;97762.16;5155879;27;20174;-89
2022/11/21 07:13:23;;;;;;;4.90;1.07;;;;;;;20.96;47.78;97768.31;5157002;27;20166;-90
2022/11/21 07:15:54;;;;;;;7.30;0.67;;;;;;;20.66;47.42;97750.56;5156376;27;20217;-90
2022/11/21 07:18:24;;;;;;;9.40;1.20;;;;;;;20.44;47.88;97760.19;5155727;27;20623;-93
2022/11/21 07:20:49;;;;;;;5.30;1.03;;;;;;;20.39;48.49;97746.56;5155842;27;20174;-89
2022/11/21 07:23:15;;;;;;;10.67;1.07;;;;;;;20.35;48.84;97745.28;5156917;27;20166;-91
2022/11/21 07:25:44;;;;;;;4.97;0.80;;;;;;;20.12;49.58;97739.91;5155758;27;20251;-94
2022/11/21 07:28:12;;;;;;;5.03;0.97;;;;;;;20.12;49.32;97723.94;5155618;27;20178;-94
2022/11/21 07:30:37;;;;;;;3.10;0.80;;;;;;;20.26;49.20;97726.88;5156489;27;20198;-94
2022/11/21 07:33:08;;;;;;;7.17;1.30;;;;;;;20.23;48.94;97718.22;5155482;27;20630;-91
2022/11/21 07:36:02;;;;;;;14.37;1.63;;;;;;;20.43;49.42;97723.09;5156552;27;20265;-93
2022/11/21 07:38:35;;;;;;;1.80;0.87;;;;;;;20.53;48.91;97729.84;5133470;27;20182;-95
2022/11/21 07:41:01;;;;;;;12.50;1.83;;;;;;;20.56;48.37;97724.19;5155377;27;20211;-88
2022/11/21 07:43:40;;;;;;;9.80;1.23;;;;;;;20.64;49.29;97733.94;5157120;27;20242;-93
2022/11/21 07:46:10;;;;;;;5.00;0.60;;;;;;;20.72;48.28;97709.91;5156716;27;20241;-92
2022/11/21 07:48:36;;;;;;;7.50;1.10;;;;;;;20.69;48.83;97708.44;5156901;27;20158;-93
2022/11/21 07:51:05;;;;;;;4.67;1.23;;;;;;;20.80;49.28;97696.53;5155031;27;20185;-90
2022/11/21 07:53:30;;;;;;;7.87;1.13;;;;;;;20.72;48.59;97708.09;5156193;27;20174;-91
2022/11/21 07:56:29;;;;;;;;;;;;;;;;;;;;;
2022/11/21 07:59:29;;;;;;;4.87;0.97;;;;;;;21.09;47.80;97709.13;5152912;27;20190;-94
2022/11/21 08:01:55;;;;;;;6.93;1.30;;;;;;;21.25;46.68;97709.78;5155075;27;20189;-91
2022/11/21 08:04:20;;;;;;;4.63;0.93;;;;;;;21.11;46.16;97718.59;5156074;27;20178;-92
2022/11/21 08:06:49;;;;;;;8.60;1.40;;;;;;;21.06;46.34;97731.63;5155671;27;20202;-90
2022/11/21 08:09:15;;;;;;;6.97;1.47;;;;;;;21.18;46.09;97748.00;5156066;27;20184;-90
2022/11/21 08:11:40;;;;;;;3.37;1.33;;;;;;;21.64;44.49;97754.88;5156101;27;20170;-90
2022/11/21 08:14:35;;;;;;;4.63;1.37;;;;;;;21.78;45.03;97755.84;5155597;27;20266;-93
2022/11/21 08:17:06;;;;;;;1.20;0.33;;;;;;;22.29;42.91;97748.75;5153316;27;20208;-92
2022/11/21 08:19:39;;;;;;;5.17;1.03;;;;;;;22.45;42.28;97765.38;5155733;27;20265;-92
2022/11/21 08:22:08;;;;;;;4.27;1.10;;;;;;;22.67;42.08;97760.09;5154831;27;20171;-92
2022/11/21 08:24:53;;;;;;;6.70;0.90;;;;;;;23.00;42.18;97755.88;5155986;27;20198;-93
2022/11/21 08:27:20;;;;;;;4.37;0.57;;;;;;;23.21;40.18;97772.75;5154842;27;20193;-88
2022/11/21 08:29:46;;;;;;;5.00;0.60;;;;;;;23.41;39.40;97786.28;5155570;27;20213;-93
2022/11/21 08:32:27;;;;;;;2.60;0.50;;;;;;;23.44;38.59;97780.56;5154630;27;20182;-94
2022/11/21 08:34:59;;;;;;;10.47;0.60;;;;;;;23.47;38.65;97780.16;5155873;27;20194;-95
2022/11/21 08:37:29;;;;;;;3.87;0.77;;;;;;;23.42;37.94;97779.94;5155814;27;20178;-90
2022/11/21 08:40:01;;;;;;;4.33;0.50;;;;;;;23.23;37.90;97783.22;5155120;27;20185;-94
2022/11/21 08:42:36;;;;;;;2.10;0.73;;;;;;;22.87;38.31;97769.13;5154311;27;20646;-92
2022/11/21 08:45:25;;;;;;;0.50;0.20;;;;;;;23.14;38.71;97771.84;5154353;27;20200;-95
2022/11/21 08:48:20;;;;;;;0.73;0.20;;;;;;;23.13;37.99;97761.34;5154777;27;20179;-91
2022/11/21 08:50:48;;;;;;;3.67;0.33;;;;;;;23.13;37.86;97777.38;5132116;27;20242;-95
2022/11/21 08:53:23;;;;;;;5.43;0.90;;;;;;;23.15;38.32;97768.16;5155555;27;20178;-94
2022/11/21 08:56:06;;;;;;;2.43;1.10;;;;;;;23.32;38.39;97762.53;5155676;27;20178;-90
2022/11/21 08:58:31;;;;;;;5.10;0.80;;;;;;;23.83;37.51;97759.41;5154261;27;20182;-91
2022/11/21 09:00:58;;;;;;;2.10;0.70;;;;;;;24.03;36.93;97756.03;5154257;27;20647;-92
2022/11/21 09:03:24;;;;;;;6.90;0.70;;;;;;;24.05;37.20;97756.63;5155399;27;20178;-90
2022/11/21 09:05:55;;;;;;;3.43;1.10;;;;;;;23.58;36.85;97757.41;5155278;27;20250;-94
2022/11/21 09:08:38;;;;;;;2.33;0.10;;;;;;;23.64;36.67;97753.94;5154998;27;20188;-92
2022/11/21 09:11:33;;;;;;;1.13;0.40;;;;;;;23.30;38.60;97756.53;5155649;27;20162;-94
2022/11/21 09:19:57;;;;;;;3.00;0.57;;;;;;;23.21;38.61;97766.56;5159577;27;20238;-91
2022/11/21 09:22:26;;;;;;;3.10;0.50;;;;;;;23.03;38.89;97771.56;5159702;27;20182;-93
2022/11/21 09:24:51;;;;;;;2.20;0.47;;;;;;;23.18;38.36;97766.94;5158496;27;20175;-94
2022/11/21 09:27:20;;;;;;;1.23;0.30;;;;;;;23.10;38.54;97778.59;5158430;27;20174;-93
2022/11/21 09:29:57;;;;;;;0.73;0.40;;;;;;;22.87;38.50;97777.97;5157692;27;20230;-94
2022/11/21 09:32:36;;;;;;;1.13;0.30;;;;;;;22.49;38.43;97769.31;5159563;27;20531;-92
2022/11/21 09:35:02;;;;;;;2.83;0.30;;;;;;;22.25;39.47;97774.19;5157943;27;20194;-88
2022/11/21 09:37:36;;;;;;;1.20;0.23;;;;;;;22.35;39.52;97772.84;5158962;27;20177;-92
2022/11/21 09:40:15;;;;;;;2.73;0.53;;;;;;;22.30;39.53;97769.09;5157850;27;20167;-92
2022/11/21 09:43:18;;;;;;;2.10;0.37;;;;;;;22.36;39.77;97763.81;5157734;27;20190;-93
2022/11/21 09:46:05;;;;;;;2.30;0.30;;;;;;;22.48;39.35;97764.97;5158152;27;20532;-93
2022/11/21 09:49:06;;;;;;;7.40;1.30;;;;;;;22.56;39.80;97754.19;5158604;27;20162;-91
2022/11/21 09:51:38;;;;;;;2.07;0.47;;;;;;;22.61;39.55;97762.44;5157856;27;20174;-96
2022/11/21 09:54:52;;;;;;;;;;;;;;;;;;;;;
2022/11/21 09:58:06;;;;;;;2.53;0.20;;;;;;;22.56;39.55;97764.88;5159000;27;20186;-91
2022/11/21 10:00:49;;;;;;;1.40;0.37;;;;;;;22.41;40.18;97765.94;5152001;27;20281;-92
2022/11/21 10:03:18;;;;;;;3.07;0.40;;;;;;;22.54;40.28;97756.22;5157610;27;20169;-95
2022/11/21 10:06:31;;;;;;;3.93;0.60;;;;;;;22.62;40.62;97753.47;5157372;27;20247;-96
2022/11/21 10:09:50;;;;;;;;;;;;;;;;;;;;;
2022/11/21 10:12:41;;;;;;;2.10;0.40;;;;;;;22.72;38.58;97749.66;5158767;27;20602;-93
2022/11/21 10:15:47;;;;;;;2.83;0.27;;;;;;;22.83;38.47;97746.47;5156649;27;20638;-92
2022/11/21 10:19:03;;;;;;;2.90;0.50;;;;;;;22.85;37.34;97747.94;5157202;27;20229;-95
2022/11/21 10:21:47;;;;;;;0.60;0.23;;;;;;;22.34;37.83;97749.84;5156988;27;20190;-94
2022/11/21 10:24:57;;;;;;;1.60;0.27;;;;;;;22.50;36.82;97740.78;5157458;27;20625;-94
2022/11/21 10:27:51;;;;;;;0.00;0.00;;;;;;;22.50;36.79;97746.13;5094333;28;20243;-94
2022/11/21 10:30:28;;;;;;;0.27;0.10;;;;;;;22.22;37.44;97737.19;5141963;27;20270;-92
2022/11/21 10:33:39;;;;;;;1.00;0.27;;;;;;;22.43;37.13;97732.69;5158482;27;20303;-91
2022/11/21 10:36:53;;;;;;;1.27;0.27;;;;;;;22.30;37.08;97727.19;5127222;27;20217;-95
2022/11/21 10:39:26;;;;;;;4.27;1.10;;;;;;;22.60;36.74;97725.25;5078234;28;20212;-93
2022/11/21 10:42:03;;;;;;;1.30;0.40;;;;;;;22.48;36.47;97730.25;5077797;28;20271;-89
2022/11/21 10:54:33;;;;;;;1.47;0.30;;;;;;;22.80;36.63;97728.19;5095783;28;20187;-95
2022/11/21 11:04:27;;;;;;;0.50;0.07;;;;;;;23.43;35.73;97735.25;5094276;28;20171;-93
2022/11/21 11:06:58;;;;;;;2.37;0.20;;;;;;;22.84;36.18;97737.44;5077405;28;20176;-94
2022/11/21 11:09:33;;;;;;;0.87;0.10;;;;;;;22.74;36.25;97740.44;5130244;27;20182;-95
2022/11/21 11:15:56;;;;;;;1.40;0.30;;;;;;;23.30;35.91;97741.31;5157316;27;20237;-92
2022/11/21 11:21:56;;;;;;;1.00;0.20;;;;;;;22.89;35.87;97727.84;5157003;27;20178;-94
2022/11/21 11:24:54;;;;;;;1.40;0.40;;;;;;;22.76;35.58;97732.22;5156337;27;20166;-94
2022/11/21 11:28:24;;;;;;;;;;;;;;;;;;;;;
2022/11/21 11:35:08;;;;;;;;;;;;;;;;;;;;;
2022/11/21 11:38:41;;;;;;;2.33;0.40;;;;;;;22.82;35.66;97718.94;5156880;27;20274;-94
2022/11/21 11:51:20;;;;;;;0.73;0.10;;;;;;;22.13;36.37;97728.44;4974390;28;20638;-95
2022/11/21 11:54:20;;;;;;;2.17;0.23;;;;;;;22.00;36.80;97726.44;4958447;28;20192;-93
2022/11/21 11:56:56;;;;;;;0.40;0.10;;;;;;;22.13;36.92;97725.78;4993779;28;20374;-94
2022/11/21 12:03:43;;;;;;;1.73;0.10;;;;;;;21.82;36.44;97722.47;4951652;28;20650;-94
2022/11/21 12:07:02;;;;;;;;;;;;;;;;;;;;;
2022/11/21 12:10:15;;;;;;;0.43;0.23;;;;;;;21.91;36.49;97716.06;5063284;28;20285;-94
2022/11/21 12:13:45;;;;;;;0.63;0.20;;;;;;;21.92;37.14;97729.22;5061747;28;20696;-95
2022/11/21 12:16:38;;;;;;;1.23;0.47;;;;;;;21.56;38.97;97728.28;5058228;28;20313;-94
2022/11/21 12:20:24;;;;;;;;;;;;;;;;;;;;;
2022/11/21 12:23:12;;;;;;;0.50;0.20;;;;;;;21.11;41.25;97745.22;5113788;28;20187;-93
2022/11/21 12:26:19;;;;;;;;;;;;;;;;;;;;;
2022/11/21 12:28:58;;;;;;;2.60;0.63;;;;;;;20.66;45.33;97766.53;5111840;28;20678;-94
2022/11/21 12:32:01;;;;;;;4.17;0.83;;;;;;;20.44;46.85;97770.81;5096248;28;20518;-95
2022/11/21 12:35:07;;;;;;;0.70;0.10;;;;;;;20.46;48.26;97782.16;5095707;28;20215;-95
2022/11/21 12:44:23;;;;;;;;;;;;;;;;;;;;;
2022/11/21 12:46:57;;;;;;;3.07;1.33;;;;;;;19.48;51.91;97780.00;5156451;27;20165;-91
2022/11/21 12:55:29;;;;;;;2.80;0.50;;;;;;;19.64;51.37;97774.66;5155738;27;20188;-91
2022/11/21 12:58:16;;;;;;;0.57;0.33;;;;;;;19.76;51.52;97772.47;5155190;27;20159;-92
2022/11/21 13:01:12;;;;;;;4.10;0.70;;;;;;;19.73;51.94;97784.28;5154336;27;20178;-93
2022/11/21 13:03:49;;;;;;;2.40;0.67;;;;;;;19.70;51.73;97775.78;5154079;27;20174;-92
2022/11/21 13:06:20;;;;;;;1.43;0.60;;;;;;;19.81;51.40;97786.06;5155253;27;20158;-92
2022/11/21 13:08:48;;;;;;;3.23;0.63;;;;;;;19.96;52.33;97789.66;5154126;27;20171;-91
2022/11/21 13:14:26;;;;;;;1.27;0.50;;;;;;;20.18;53.65;97789.72;5154940;27;20217;-91
2022/11/21 13:17:12;;;;;;;1.30;0.60;;;;;;;20.01;53.38;97793.47;5153810;27;20544;-92